createdAt,value
2022-09-18T00:00:33.550Z,12.35
2022-09-18T00:01:33.505Z,12.30
2022-09-18T00:02:33.456Z,12.40
2022-09-18T00:03:33.519Z,12.43
2022-09-18T00:04:33.379Z,12.38
2022-09-18T00:05:33.380Z,12.40
2022-09-18T00:06:33.377Z,12.32
2022-09-18T00:07:33.379Z,12.39
2022-09-18T00:08:33.336Z,12.36
2022-09-18T00:09:33.319Z,12.32
2022-09-18T00:10:33.351Z,12.38
2022-09-18T00:11:33.296Z,12.30
2022-09-18T00:12:33.345Z,12.35
2022-09-18T00:13:33.277Z,12.33
2022-09-18T00:14:33.265Z,12.24
2022-09-18T00:15:33.278Z,12.30
2022-09-18T00:16:33.422Z,12.24
2022-09-18T00:17:33.260Z,12.15
2022-09-18T00:18:33.336Z,12.18
2022-09-18T00:19:33.212Z,12.10
2022-09-18T00:20:33.215Z,12.06
2022-09-18T00:21:33.224Z,12.13
2022-09-18T00:22:33.184Z,12.13
2022-09-18T00:23:33.170Z,12.15
2022-09-18T00:24:33.170Z,12.05
2022-09-18T00:25:33.149Z,12.02
2022-09-18T00:26:33.176Z,12.09
2022-09-18T00:27:33.119Z,12.14
2022-09-18T00:28:33.110Z,12.06
2022-09-18T00:29:33.099Z,12.07
2022-09-18T00:30:33.117Z,12.06
2022-09-18T00:31:33.241Z,12.05
2022-09-18T00:32:33.181Z,12.05
2022-09-18T00:33:33.099Z,12.05
2022-09-18T00:34:33.052Z,12.07
2022-09-18T00:35:33.046Z,12.09
2022-09-18T00:36:33.024Z,12.07
2022-09-18T00:37:33.010Z,12.02
2022-09-18T00:38:33.000Z,12.09
2022-09-18T00:39:32.980Z,12.10
2022-09-18T00:40:33.072Z,12.00
2022-09-18T00:41:32.959Z,11.95
2022-09-18T00:42:32.990Z,12.09
2022-09-18T00:43:32.952Z,12.07
2022-09-18T00:44:32.935Z,11.96
2022-09-18T00:45:32.938Z,12.03
2022-09-18T00:46:32.983Z,11.88
2022-09-18T00:47:32.896Z,11.90
2022-09-18T00:48:33.020Z,11.86
2022-09-18T00:49:32.876Z,11.99
2022-09-18T00:50:32.889Z,11.86
2022-09-18T00:51:32.850Z,11.97
2022-09-18T00:52:32.843Z,11.96
2022-09-18T00:53:32.828Z,11.99
2022-09-18T00:54:32.898Z,11.83
2022-09-18T00:55:32.834Z,11.91
2022-09-18T00:56:32.792Z,11.86
2022-09-18T00:57:32.793Z,11.81
2022-09-18T00:58:32.770Z,11.88
2022-09-18T00:59:32.764Z,11.90
2022-09-18T01:00:32.800Z,11.80
2022-09-18T01:01:32.801Z,11.81
2022-09-18T01:02:32.864Z,11.79
2022-09-18T01:03:32.720Z,11.79
2022-09-18T01:04:32.815Z,11.74
2022-09-18T01:05:32.709Z,11.79
2022-09-18T01:06:32.764Z,11.74
2022-09-18T01:07:32.670Z,11.74
2022-09-18T01:08:32.671Z,11.74
2022-09-18T01:09:32.649Z,11.80
2022-09-18T01:10:32.655Z,11.68
2022-09-18T01:11:32.630Z,11.68
2022-09-18T01:12:32.616Z,11.79
2022-09-18T01:13:32.656Z,11.76
2022-09-18T01:14:32.599Z,11.84
2022-09-18T01:15:32.597Z,11.77
2022-09-18T01:16:32.695Z,11.77
2022-09-18T01:17:32.552Z,11.80
2022-09-18T01:18:32.549Z,11.69
2022-09-18T01:19:32.541Z,11.77
2022-09-18T01:20:32.649Z,11.69
2022-09-18T01:21:32.515Z,11.65
2022-09-18T01:22:32.533Z,11.66
2022-09-18T01:23:32.492Z,11.66
2022-09-18T01:24:32.479Z,11.63
2022-09-18T01:25:32.487Z,11.62
2022-09-18T01:26:32.460Z,11.63
2022-09-18T01:27:32.448Z,11.72
2022-09-18T01:28:32.513Z,11.68
2022-09-18T01:29:32.418Z,11.66
2022-09-18T01:30:32.428Z,11.66
2022-09-18T01:31:32.506Z,11.71
2022-09-18T01:32:32.386Z,11.69
2022-09-18T01:33:32.383Z,11.68
2022-09-18T01:34:32.374Z,11.66
2022-09-18T01:35:47.674Z,11.66
2022-09-18T01:36:33.475Z,11.62
2022-09-18T01:37:32.358Z,11.66
2022-09-18T01:38:32.319Z,11.62
2022-09-18T01:39:32.322Z,11.65
2022-09-18T01:40:32.394Z,11.63
2022-09-18T01:41:32.336Z,11.61
2022-09-18T01:42:32.296Z,11.63
2022-09-18T01:43:32.267Z,11.66
2022-09-18T01:44:32.266Z,11.59
2022-09-18T01:45:32.264Z,11.69
2022-09-18T01:46:32.286Z,11.61
2022-09-18T01:47:32.232Z,11.58
2022-09-18T01:48:32.211Z,11.58
2022-09-18T01:49:32.203Z,11.59
2022-09-18T01:50:32.252Z,11.61
2022-09-18T01:51:32.181Z,11.62
2022-09-18T01:52:32.278Z,11.62
2022-09-18T01:53:32.164Z,11.68
2022-09-18T01:54:32.162Z,11.63
2022-09-18T01:55:32.154Z,11.68
2022-09-18T01:56:32.203Z,11.63
2022-09-18T01:57:32.111Z,11.54
2022-09-18T01:58:32.106Z,11.59
2022-09-18T01:59:32.093Z,11.56
2022-09-18T02:00:32.106Z,11.59
2022-09-18T02:01:32.177Z,11.68
2022-09-18T02:02:32.217Z,11.68
2022-09-18T02:03:32.047Z,11.68
2022-09-18T02:04:32.031Z,11.63
2022-09-18T02:05:32.045Z,11.63
2022-09-18T02:06:32.012Z,11.62
2022-09-18T02:07:32.010Z,11.68
2022-09-18T02:08:32.109Z,11.63
2022-09-18T02:09:31.981Z,11.66
2022-09-18T02:10:31.979Z,11.63
2022-09-18T02:11:31.963Z,11.68
2022-09-18T02:12:31.943Z,11.68
2022-09-18T02:13:31.938Z,11.74
2022-09-18T02:14:31.951Z,11.65
2022-09-18T02:15:31.928Z,11.71
2022-09-18T02:16:31.917Z,11.65
2022-09-18T02:17:31.889Z,11.65
2022-09-18T02:18:31.887Z,11.63
2022-09-18T02:19:31.872Z,11.62
2022-09-18T02:20:31.878Z,11.58
2022-09-18T02:21:31.937Z,11.56
2022-09-18T02:22:31.841Z,11.63
2022-09-18T02:23:31.829Z,11.63
2022-09-18T02:24:31.926Z,11.62
2022-09-18T02:25:31.824Z,11.56
2022-09-18T02:26:31.793Z,11.63
2022-09-18T02:27:31.832Z,11.63
2022-09-18T02:28:31.764Z,11.61
2022-09-18T02:29:31.753Z,11.58
2022-09-18T02:30:31.805Z,11.62
2022-09-18T02:31:31.772Z,11.61
2022-09-18T02:32:31.724Z,11.56
2022-09-18T02:33:31.768Z,11.65
2022-09-18T02:34:31.700Z,11.58
2022-09-18T02:35:31.706Z,11.56
2022-09-18T02:36:31.673Z,11.61
2022-09-18T02:37:31.674Z,11.56
2022-09-18T02:38:31.696Z,11.61
2022-09-18T02:39:31.641Z,11.68
2022-09-18T02:40:31.868Z,11.59
2022-09-18T02:41:31.620Z,11.63
2022-09-18T02:42:31.618Z,11.56
2022-09-18T02:43:31.601Z,11.62
2022-09-18T02:44:31.582Z,11.54
2022-09-18T02:45:31.623Z,11.54
2022-09-18T02:46:31.595Z,11.59
2022-09-18T02:47:31.555Z,11.51
2022-09-18T02:48:31.543Z,11.51
2022-09-18T02:49:31.523Z,11.51
2022-09-18T02:50:31.547Z,11.63
2022-09-18T02:51:31.570Z,11.54
2022-09-18T02:52:31.513Z,11.48
2022-09-18T02:53:31.482Z,11.47
2022-09-18T02:54:31.472Z,11.40
2022-09-18T02:55:31.521Z,11.51
2022-09-18T02:56:31.566Z,11.56
2022-09-18T02:57:31.439Z,11.56
2022-09-18T02:58:31.474Z,11.48
2022-09-18T02:59:31.408Z,11.56
2022-09-18T03:00:31.443Z,11.46
2022-09-18T03:01:31.451Z,11.47
2022-09-18T03:02:31.473Z,11.50
2022-09-18T03:03:31.371Z,11.43
2022-09-18T03:04:31.361Z,11.48
2022-09-18T03:05:31.428Z,11.48
2022-09-18T03:06:31.340Z,11.50
2022-09-18T03:07:31.325Z,11.43
2022-09-18T03:08:31.306Z,11.48
2022-09-18T03:09:31.308Z,11.48
2022-09-18T03:10:31.321Z,11.50
2022-09-18T03:11:31.286Z,11.38
2022-09-18T03:12:31.389Z,11.43
2022-09-18T03:13:31.344Z,11.40
2022-09-18T03:14:31.250Z,11.43
2022-09-18T03:15:31.294Z,11.46
2022-09-18T03:16:31.281Z,11.43
2022-09-18T03:17:31.204Z,11.37
2022-09-18T03:18:31.202Z,11.32
2022-09-18T03:19:31.264Z,11.30
2022-09-18T03:20:31.198Z,11.30
2022-09-18T03:21:31.164Z,11.37
2022-09-18T03:22:31.181Z,11.35
2022-09-18T03:23:31.141Z,11.41
2022-09-18T03:24:31.137Z,11.33
2022-09-18T03:25:31.132Z,11.33
2022-09-18T03:26:31.118Z,11.28
2022-09-18T03:27:31.197Z,11.29
2022-09-18T03:28:31.200Z,11.30
2022-09-18T03:29:31.077Z,11.29
2022-09-18T03:30:31.071Z,11.33
2022-09-18T03:31:31.464Z,11.38
2022-09-18T03:32:31.038Z,11.30
2022-09-18T03:33:31.022Z,11.32
2022-09-18T03:34:31.015Z,11.32
2022-09-18T03:35:31.025Z,11.29
2022-09-18T03:36:31.006Z,11.32
2022-09-18T03:37:30.990Z,11.30
2022-09-18T03:38:30.963Z,11.30
2022-09-18T03:39:30.990Z,11.37
2022-09-18T03:40:31.153Z,11.32
2022-09-18T03:41:30.946Z,11.25
2022-09-18T03:42:30.919Z,11.29
2022-09-18T03:43:30.903Z,11.22
2022-09-18T03:44:31.025Z,11.29
2022-09-18T03:45:30.978Z,11.28
2022-09-18T03:46:30.973Z,11.30
2022-09-18T03:47:34.284Z,11.33
2022-09-18T03:48:31.849Z,11.25
2022-09-18T03:49:30.842Z,11.28
2022-09-18T03:50:30.845Z,11.23
2022-09-18T03:51:30.843Z,11.33
2022-09-18T03:52:30.803Z,11.28
2022-09-18T03:53:30.796Z,11.33
2022-09-18T03:54:30.780Z,11.25
2022-09-18T03:55:30.803Z,11.23
2022-09-18T03:56:30.759Z,11.23
2022-09-18T03:57:30.749Z,11.25
2022-09-18T03:58:30.804Z,11.29
2022-09-18T03:59:30.736Z,11.28
2022-09-18T04:00:30.846Z,11.32
2022-09-18T04:01:30.722Z,11.29
2022-09-18T04:02:30.814Z,11.23
2022-09-18T04:03:30.686Z,11.35
2022-09-18T04:04:30.705Z,11.37
2022-09-18T04:05:30.681Z,11.32
2022-09-18T04:06:30.651Z,11.38
2022-09-18T04:07:30.653Z,11.37
2022-09-18T04:08:30.638Z,11.35
2022-09-18T04:09:30.617Z,11.40
2022-09-18T04:10:30.618Z,11.33
2022-09-18T04:11:30.627Z,11.28
2022-09-18T04:12:30.578Z,11.28
2022-09-18T04:13:30.575Z,11.28
2022-09-18T04:14:30.566Z,11.35
2022-09-18T04:15:30.564Z,11.29
2022-09-18T04:16:30.697Z,11.30
2022-09-18T04:17:30.520Z,11.35
2022-09-18T04:18:30.518Z,11.37
2022-09-18T04:19:30.496Z,11.37
2022-09-18T04:20:30.504Z,11.32
2022-09-18T04:21:30.484Z,11.30
2022-09-18T04:22:30.464Z,11.28
2022-09-18T04:23:30.462Z,11.30
2022-09-18T04:24:30.443Z,11.26
2022-09-18T04:25:30.442Z,11.19
2022-09-18T04:26:30.421Z,11.12
2022-09-18T04:27:30.408Z,11.30
2022-09-18T04:28:30.397Z,11.23
2022-09-18T04:29:30.383Z,11.15
2022-09-18T04:30:30.391Z,11.28
2022-09-18T04:31:30.604Z,11.28
2022-09-18T04:32:30.464Z,11.26
2022-09-18T04:33:30.369Z,11.26
2022-09-18T04:34:30.324Z,11.29
2022-09-18T04:35:30.328Z,11.29
2022-09-18T04:36:30.312Z,11.29
2022-09-18T04:37:30.289Z,11.26
2022-09-18T04:38:30.324Z,11.26
2022-09-18T04:39:30.285Z,11.28
2022-09-18T04:40:30.321Z,11.19
2022-09-18T04:41:30.268Z,11.23
2022-09-18T04:42:30.251Z,11.17
2022-09-18T04:43:30.226Z,11.19
2022-09-18T04:44:30.210Z,11.26
2022-09-18T04:45:30.224Z,11.17
2022-09-18T04:46:30.242Z,11.15
2022-09-18T04:47:30.183Z,11.20
2022-09-18T04:48:30.309Z,11.22
2022-09-18T04:49:30.167Z,11.20
2022-09-18T04:50:30.165Z,11.17
2022-09-18T04:51:30.138Z,11.15
2022-09-18T04:52:30.119Z,11.20
2022-09-18T04:53:30.112Z,11.14
2022-09-18T04:54:30.119Z,11.10
2022-09-18T04:55:30.114Z,11.19
2022-09-18T04:56:30.105Z,11.17
2022-09-18T04:57:30.067Z,11.14
2022-09-18T04:58:30.062Z,11.14
2022-09-18T04:59:30.061Z,11.22
2022-09-18T05:00:30.135Z,11.20
2022-09-18T05:01:30.023Z,11.14
2022-09-18T05:02:30.080Z,11.15
2022-09-18T05:03:30.004Z,11.19
2022-09-18T05:04:30.120Z,11.11
2022-09-18T05:05:30.004Z,11.20
2022-09-18T05:06:30.036Z,11.17
2022-09-18T05:07:29.962Z,11.17
2022-09-18T05:08:29.943Z,11.12
2022-09-18T05:09:29.934Z,11.15
2022-09-18T05:10:29.983Z,11.14
2022-09-18T05:11:29.906Z,11.12
2022-09-18T05:12:29.909Z,11.14
2022-09-18T05:13:29.894Z,11.14
2022-09-18T05:14:29.950Z,11.04
2022-09-18T05:15:29.886Z,11.03
2022-09-18T05:16:29.927Z,11.04
2022-09-18T05:17:29.861Z,11.01
2022-09-18T05:18:29.845Z,11.08
2022-09-18T05:19:29.845Z,11.04
2022-09-18T05:20:29.933Z,11.08
2022-09-18T05:21:29.829Z,11.01
2022-09-18T05:22:29.784Z,10.95
2022-09-18T05:23:29.802Z,11.01
2022-09-18T05:24:29.767Z,11.04
2022-09-18T05:25:29.763Z,11.08
2022-09-18T05:26:29.734Z,11.08
2022-09-18T05:27:29.795Z,11.00
2022-09-18T05:28:29.717Z,11.01
2022-09-18T05:29:29.721Z,11.08
2022-09-18T05:30:29.716Z,10.96
2022-09-18T05:31:29.772Z,11.00
2022-09-18T05:32:29.671Z,11.01
2022-09-18T05:33:29.663Z,11.01
2022-09-18T05:34:29.646Z,11.00
2022-09-18T05:35:29.646Z,11.05
2022-09-18T05:36:29.783Z,11.11
2022-09-18T05:37:29.620Z,11.07
2022-09-18T05:38:29.600Z,11.05
2022-09-18T05:39:29.588Z,11.00
2022-09-18T05:40:29.661Z,11.07
2022-09-18T05:41:29.578Z,11.04
2022-09-18T05:42:29.556Z,11.08
2022-09-18T05:43:29.603Z,11.08
2022-09-18T05:44:29.532Z,11.08
2022-09-18T05:45:29.537Z,11.05
2022-09-18T05:46:29.539Z,11.12
2022-09-18T05:47:29.507Z,11.04
2022-09-18T05:48:29.498Z,11.04
2022-09-18T05:49:29.476Z,11.08
2022-09-18T05:50:29.527Z,11.03
2022-09-18T05:51:29.545Z,11.08
2022-09-18T05:52:29.566Z,10.96
2022-09-18T05:53:29.432Z,11.01
2022-09-18T05:54:29.427Z,10.93
2022-09-18T05:55:31.787Z,10.97
2022-09-18T05:56:29.392Z,10.96
2022-09-18T05:57:29.394Z,10.87
2022-09-18T05:58:29.381Z,10.93
2022-09-18T05:59:29.369Z,10.92
2022-09-18T06:00:29.536Z,10.93
2022-09-18T06:01:29.366Z,10.92
2022-09-18T06:02:29.377Z,10.95
2022-09-18T06:03:29.320Z,10.92
2022-09-18T06:04:29.305Z,10.95
2022-09-18T06:05:29.313Z,10.96
2022-09-18T06:06:29.331Z,10.87
2022-09-18T06:07:29.280Z,10.92
2022-09-18T06:08:29.387Z,10.92
2022-09-18T06:09:29.253Z,10.92
2022-09-18T06:10:29.250Z,11.01
2022-09-18T06:11:29.286Z,10.92
2022-09-18T06:12:29.225Z,10.92
2022-09-18T06:13:29.226Z,10.86
2022-09-18T06:14:29.202Z,10.87
2022-09-18T06:15:29.201Z,10.92
2022-09-18T06:16:29.325Z,10.93
2022-09-18T06:17:29.235Z,10.86
2022-09-18T06:18:29.154Z,10.87
2022-09-18T06:19:29.143Z,10.87
2022-09-18T06:20:29.142Z,10.85
2022-09-18T06:21:29.104Z,10.87
2022-09-18T06:22:29.111Z,10.92
2022-09-18T06:23:29.085Z,10.85
2022-09-18T06:24:29.198Z,10.92
2022-09-18T06:25:29.101Z,10.92
2022-09-18T06:26:29.052Z,10.92
2022-09-18T06:27:29.103Z,10.78
2022-09-18T06:28:29.028Z,10.87
2022-09-18T06:29:29.020Z,10.79
2022-09-18T06:30:29.033Z,10.86
2022-09-18T06:31:29.030Z,10.92
2022-09-18T06:32:28.982Z,10.89
2022-09-18T06:33:28.979Z,10.89
2022-09-18T06:34:28.965Z,10.86
2022-09-18T06:35:29.008Z,10.85
2022-09-18T06:36:28.930Z,10.90
2022-09-18T06:37:28.927Z,10.90
2022-09-18T06:38:28.921Z,10.85
2022-09-18T06:39:28.897Z,10.92
2022-09-18T06:40:29.176Z,10.85
2022-09-18T06:41:28.876Z,10.90
2022-09-18T06:42:28.881Z,10.93
2022-09-18T06:43:28.853Z,10.97
2022-09-18T06:44:28.847Z,10.92
2022-09-18T06:45:28.857Z,10.95
2022-09-18T06:46:28.885Z,10.89
2022-09-18T06:47:28.817Z,10.78
2022-09-18T06:48:28.812Z,10.78
2022-09-18T06:49:28.783Z,10.96
2022-09-18T06:50:28.786Z,10.87
2022-09-18T06:51:28.857Z,10.86
2022-09-18T06:52:28.759Z,10.92
2022-09-18T06:53:28.739Z,10.96
2022-09-18T06:54:28.793Z,10.92
2022-09-18T06:55:28.732Z,10.97
2022-09-18T06:56:28.730Z,10.93
2022-09-18T06:57:28.697Z,11.00
2022-09-18T06:58:28.685Z,10.93
2022-09-18T06:59:28.669Z,10.96
2022-09-18T07:00:28.730Z,10.92
2022-09-18T07:01:28.716Z,11.03
2022-09-18T07:02:28.723Z,10.96
2022-09-18T07:03:28.621Z,10.93
2022-09-18T07:04:28.616Z,11.01
2022-09-18T07:05:28.628Z,10.93
2022-09-18T07:06:28.690Z,10.89
2022-09-18T07:07:28.586Z,10.95
2022-09-18T07:08:28.572Z,10.97
2022-09-18T07:09:28.567Z,11.04
2022-09-18T07:10:28.567Z,11.01
2022-09-18T07:11:28.544Z,11.08
2022-09-18T07:12:28.636Z,11.11
2022-09-18T07:13:28.509Z,11.04
2022-09-18T07:14:28.498Z,11.04
2022-09-18T07:15:28.504Z,11.08
2022-09-18T07:16:28.571Z,11.08
2022-09-18T07:17:28.467Z,11.08
2022-09-18T07:18:28.452Z,11.07
2022-09-18T07:19:28.444Z,11.11
2022-09-18T07:20:28.448Z,11.12
2022-09-18T07:21:28.431Z,11.23
2022-09-18T07:22:28.480Z,11.14
2022-09-18T07:23:28.398Z,11.25
2022-09-18T07:24:28.384Z,11.23
2022-09-18T07:25:28.400Z,11.22
2022-09-18T07:26:28.364Z,11.25
2022-09-18T07:27:28.359Z,11.32
2022-09-18T07:28:28.455Z,11.33
2022-09-18T07:29:28.332Z,11.32
2022-09-18T07:30:28.329Z,11.35
2022-09-18T07:31:28.426Z,11.35
2022-09-18T07:32:28.289Z,11.46
2022-09-18T07:33:28.295Z,11.50
2022-09-18T07:34:28.275Z,11.53
2022-09-18T07:35:28.277Z,11.43
2022-09-18T07:36:28.255Z,11.51
2022-09-18T07:37:28.281Z,11.59
2022-09-18T07:38:28.235Z,11.63
2022-09-18T07:39:28.211Z,11.51
2022-09-18T07:40:28.282Z,11.62
2022-09-18T07:41:28.186Z,11.61
2022-09-18T07:42:28.192Z,11.65
2022-09-18T07:43:28.170Z,11.68
2022-09-18T07:44:28.285Z,11.68
2022-09-18T07:45:28.159Z,11.72
2022-09-18T07:46:28.166Z,11.72
2022-09-18T07:47:28.132Z,11.77
2022-09-18T07:48:28.115Z,11.77
2022-09-18T07:49:28.119Z,11.72
2022-09-18T07:50:28.108Z,11.83
2022-09-18T07:51:28.118Z,11.96
2022-09-18T07:52:28.064Z,11.87
2022-09-18T07:53:28.056Z,11.95
2022-09-18T07:54:28.039Z,11.95
2022-09-18T07:55:28.055Z,11.96
2022-09-18T07:56:28.021Z,12.06
2022-09-18T07:57:28.002Z,12.03
2022-09-18T07:58:28.044Z,12.15
2022-09-18T07:59:27.984Z,12.13
2022-09-18T08:00:28.123Z,12.07
2022-09-18T08:01:27.991Z,12.07
2022-09-18T08:02:28.126Z,12.03
2022-09-18T08:03:27.953Z,12.10
2022-09-18T08:04:27.941Z,12.22
2022-09-18T08:05:27.936Z,12.21
2022-09-18T08:06:27.908Z,12.28
2022-09-18T08:07:27.904Z,12.27
2022-09-18T08:08:27.895Z,12.28
2022-09-18T08:09:27.882Z,12.32
2022-09-18T08:10:27.892Z,12.30
2022-09-18T08:11:27.877Z,12.35
2022-09-18T08:12:27.834Z,12.36
2022-09-18T08:13:27.842Z,12.30
2022-09-18T08:14:29.060Z,12.45
2022-09-18T08:15:27.854Z,12.57
2022-09-18T08:16:27.976Z,12.50
2022-09-18T08:17:27.780Z,12.43
2022-09-18T08:18:27.853Z,12.58
2022-09-18T08:19:27.781Z,12.55
2022-09-18T08:20:27.781Z,12.69
2022-09-18T08:21:27.754Z,12.69
2022-09-18T08:22:27.830Z,12.75
2022-09-18T08:23:27.720Z,12.83
2022-09-18T08:24:27.708Z,12.93
2022-09-18T08:25:27.811Z,12.94
2022-09-18T08:26:27.695Z,13.03
2022-09-18T08:27:27.685Z,13.05
2022-09-18T08:28:27.669Z,13.11
2022-09-18T08:29:27.671Z,12.98
2022-09-18T08:30:27.649Z,13.16
2022-09-18T08:31:27.697Z,13.16
2022-09-18T08:32:27.755Z,13.16
2022-09-18T08:33:27.614Z,13.15
2022-09-18T08:34:27.595Z,13.19
2022-09-18T08:35:27.603Z,13.12
2022-09-18T08:36:27.700Z,13.12
2022-09-18T08:37:27.600Z,13.11
2022-09-18T08:38:27.542Z,13.24
2022-09-18T08:39:27.530Z,13.29
2022-09-18T08:40:27.625Z,13.30
2022-09-18T08:41:27.519Z,13.33
2022-09-18T08:42:27.489Z,13.37
2022-09-18T08:43:27.487Z,13.33
2022-09-18T08:44:27.503Z,13.39
2022-09-18T08:45:27.478Z,13.39
2022-09-18T08:46:27.483Z,13.53
2022-09-18T08:47:27.433Z,13.53
2022-09-18T08:48:27.541Z,13.59
2022-09-18T08:49:27.415Z,13.65
2022-09-18T08:50:27.477Z,13.68
2022-09-18T08:51:27.397Z,13.70
2022-09-18T08:52:27.387Z,13.68
2022-09-18T08:53:27.458Z,13.70
2022-09-18T08:54:27.352Z,13.71
2022-09-18T08:55:27.372Z,13.74
2022-09-18T08:56:27.342Z,13.72
2022-09-18T08:57:27.327Z,13.75
2022-09-18T08:58:27.321Z,13.90
2022-09-18T08:59:27.340Z,13.89
2022-09-18T09:00:27.306Z,13.95
2022-09-18T09:01:27.329Z,13.89
2022-09-18T09:02:27.310Z,13.92
2022-09-18T09:03:27.283Z,13.96
2022-09-18T09:04:27.385Z,13.90
2022-09-18T09:05:27.281Z,13.95
2022-09-18T09:06:27.224Z,14.04
2022-09-18T09:07:27.213Z,14.13
2022-09-18T09:08:27.223Z,14.11
2022-09-18T09:09:27.191Z,14.11
2022-09-18T09:10:27.369Z,14.11
2022-09-18T09:11:27.177Z,14.08
2022-09-18T09:12:27.165Z,14.10
2022-09-18T09:13:27.156Z,13.96
2022-09-18T09:14:52.975Z,14.08
2022-09-18T09:15:28.127Z,14.11
2022-09-18T09:16:27.166Z,14.11
2022-09-18T09:17:27.123Z,14.14
2022-09-18T09:18:27.078Z,14.22
2022-09-18T09:19:27.071Z,14.26
2022-09-18T09:20:27.199Z,14.37
2022-09-18T09:21:27.054Z,14.40
2022-09-18T09:22:27.041Z,14.48
2022-09-18T09:23:27.035Z,14.69
2022-09-18T09:24:27.022Z,14.78
2022-09-18T09:25:27.031Z,14.99
2022-09-18T09:26:27.048Z,14.96
2022-09-18T09:27:26.987Z,15.04
2022-09-18T09:28:26.974Z,15.06
2022-09-18T09:29:26.960Z,15.12
2022-09-18T09:30:26.974Z,15.09
2022-09-18T09:31:26.999Z,15.14
2022-09-18T09:32:26.973Z,15.11
2022-09-18T09:33:26.918Z,15.03
2022-09-18T09:34:26.901Z,15.06
2022-09-18T09:35:26.912Z,15.17
2022-09-18T09:36:26.997Z,15.09
2022-09-18T09:37:29.606Z,15.24
2022-09-18T09:38:27.853Z,15.33
2022-09-18T09:39:26.874Z,15.39
2022-09-18T09:40:26.929Z,15.54
2022-09-18T09:41:26.821Z,15.64
2022-09-18T09:42:26.813Z,15.72
2022-09-18T09:43:26.802Z,15.70
2022-09-18T09:44:26.825Z,15.76
2022-09-18T09:45:26.793Z,15.91
2022-09-18T09:46:26.794Z,16.06
2022-09-18T09:47:26.756Z,16.05
2022-09-18T09:48:26.743Z,16.05
2022-09-18T09:49:26.729Z,16.13
2022-09-18T09:50:26.752Z,16.09
2022-09-18T09:51:26.707Z,16.10
2022-09-18T09:52:26.815Z,16.10
2022-09-18T09:53:26.689Z,15.95
2022-09-18T09:54:26.676Z,15.98
2022-09-18T09:55:26.671Z,16.02
2022-09-18T09:56:26.657Z,16.01
2022-09-18T09:57:26.691Z,16.08
2022-09-18T09:58:26.641Z,16.29
2022-09-18T09:59:26.630Z,16.24
2022-09-18T10:00:26.699Z,16.24
2022-09-18T10:01:26.611Z,16.28
2022-09-18T10:02:26.668Z,16.36
2022-09-18T10:03:26.574Z,16.61
2022-09-18T10:04:26.562Z,16.56
2022-09-18T10:05:26.560Z,16.47
2022-09-18T10:06:26.552Z,16.43
2022-09-18T10:07:26.521Z,16.46
2022-09-18T10:08:26.628Z,16.34
2022-09-18T10:09:26.501Z,16.51
2022-09-18T10:10:26.505Z,16.80
2022-09-18T10:11:26.491Z,17.06
2022-09-18T10:12:26.485Z,17.31
2022-09-18T10:13:26.555Z,17.75
2022-09-18T10:14:26.500Z,17.97
2022-09-18T10:15:26.447Z,18.16
2022-09-18T10:16:26.478Z,18.53
2022-09-18T10:17:26.412Z,18.89
2022-09-18T10:18:26.407Z,19.30
2022-09-18T10:19:26.390Z,19.63
2022-09-18T10:20:26.430Z,19.88
2022-09-18T10:21:26.363Z,20.22
2022-09-18T10:22:26.351Z,20.28
2022-09-18T10:23:29.679Z,20.37
2022-09-18T10:24:27.449Z,20.48
2022-09-18T10:25:26.346Z,20.62
2022-09-18T10:26:26.436Z,20.19
2022-09-18T10:27:26.330Z,19.88
2022-09-18T10:28:26.301Z,19.56
2022-09-18T10:29:26.277Z,19.11
2022-09-18T10:30:26.397Z,18.77
2022-09-18T10:31:26.301Z,18.43
2022-09-18T10:32:26.252Z,18.16
2022-09-18T10:33:26.234Z,18.03
2022-09-18T10:34:26.231Z,17.78
2022-09-18T10:35:26.380Z,17.48
2022-09-18T10:36:26.220Z,17.30
2022-09-18T10:37:26.183Z,17.16
2022-09-18T10:38:26.183Z,17.01
2022-09-18T10:39:31.105Z,16.80
2022-09-18T10:40:27.353Z,16.64
2022-09-18T10:41:26.141Z,16.50
2022-09-18T10:42:26.134Z,16.39
2022-09-18T10:43:26.218Z,16.32
2022-09-18T10:44:26.157Z,16.53
2022-09-18T10:45:26.111Z,16.82
2022-09-18T10:46:26.144Z,17.09
2022-09-18T10:47:26.097Z,17.19
2022-09-18T10:48:26.087Z,17.29
2022-09-18T10:49:26.047Z,17.64
2022-09-18T10:50:26.045Z,17.94
2022-09-18T10:51:26.028Z,18.07
2022-09-18T10:52:26.009Z,18.23
2022-09-18T10:53:26.003Z,18.37
2022-09-18T10:54:25.991Z,18.38
2022-09-18T10:55:25.987Z,18.38
2022-09-18T10:56:26.091Z,18.30
2022-09-18T10:57:25.958Z,18.20
2022-09-18T10:58:25.946Z,18.16
2022-09-18T10:59:25.937Z,17.93
2022-09-18T11:00:26.016Z,17.70
2022-09-18T11:01:25.952Z,17.35
2022-09-18T11:02:26.042Z,17.23
2022-09-18T11:03:25.888Z,16.99
2022-09-18T11:04:25.877Z,16.83
2022-09-18T11:05:25.885Z,16.54
2022-09-18T11:06:25.864Z,16.51
2022-09-18T11:07:26.099Z,16.35
2022-09-18T11:08:25.873Z,16.13
2022-09-18T11:09:25.829Z,16.10
2022-09-18T11:10:25.824Z,16.09
2022-09-18T11:11:25.813Z,16.06
2022-09-18T11:12:25.908Z,16.20
2022-09-18T11:13:25.780Z,16.17
2022-09-18T11:14:25.786Z,16.10
2022-09-18T11:15:25.792Z,16.02
2022-09-18T11:16:25.813Z,16.05
2022-09-18T11:17:25.729Z,16.01
2022-09-18T11:18:25.725Z,16.02
2022-09-18T11:19:25.712Z,16.10
2022-09-18T11:20:25.715Z,16.17
2022-09-18T11:21:25.725Z,16.35
2022-09-18T11:22:25.675Z,16.28
2022-09-18T11:23:25.668Z,16.36
2022-09-18T11:24:25.657Z,16.28
2022-09-18T11:25:25.679Z,16.26
2022-09-18T11:26:25.632Z,16.24
2022-09-18T11:27:25.644Z,16.25
2022-09-18T11:28:25.728Z,16.02
2022-09-18T11:29:25.593Z,16.00
2022-09-18T11:30:25.592Z,15.85
2022-09-18T11:31:25.633Z,15.72
2022-09-18T11:32:25.559Z,15.54
2022-09-18T11:33:25.574Z,15.43
2022-09-18T11:34:25.540Z,15.28
2022-09-18T11:35:25.546Z,15.19
2022-09-18T11:36:25.520Z,15.09
2022-09-18T11:37:25.504Z,14.99
2022-09-18T11:38:25.495Z,15.07
2022-09-18T11:39:25.498Z,14.96
2022-09-18T11:40:25.617Z,15.07
2022-09-18T11:41:25.456Z,14.99
2022-09-18T11:42:25.450Z,15.07
2022-09-18T11:43:25.435Z,15.15
2022-09-18T11:44:25.536Z,15.17
2022-09-18T11:45:25.432Z,15.24
2022-09-18T11:46:25.467Z,15.30
2022-09-18T11:47:25.414Z,15.43
2022-09-18T11:48:25.374Z,15.57
2022-09-18T11:49:25.373Z,15.69
2022-09-18T11:50:25.373Z,15.79
2022-09-18T11:51:25.346Z,15.97
2022-09-18T11:52:25.325Z,16.13
2022-09-18T11:53:25.351Z,16.26
2022-09-18T11:54:25.308Z,16.43
2022-09-18T11:55:25.315Z,16.43
2022-09-18T11:56:25.287Z,16.62
2022-09-18T11:57:25.279Z,16.76
2022-09-18T11:58:25.262Z,16.96
2022-09-18T11:59:25.279Z,17.06
2022-09-18T12:00:25.382Z,17.19
2022-09-18T12:01:25.234Z,17.23
2022-09-18T12:02:25.358Z,17.41
2022-09-18T12:03:25.288Z,17.53
2022-09-18T12:04:25.194Z,17.53
2022-09-18T12:05:25.215Z,17.76
2022-09-18T12:06:25.202Z,17.78
2022-09-18T12:07:38.546Z,17.94
2022-09-18T12:08:23.793Z,17.93
2022-09-18T12:09:23.773Z,18.04
2022-09-18T12:10:23.778Z,18.01
2022-09-18T12:11:23.768Z,18.10
2022-09-18T12:12:23.812Z,18.18
2022-09-18T12:13:23.750Z,18.15
2022-09-18T12:14:23.716Z,18.18
2022-09-18T12:15:23.727Z,18.25
2022-09-18T12:16:23.897Z,18.18
2022-09-18T12:17:23.705Z,17.88
2022-09-18T12:18:23.704Z,17.37
2022-09-18T12:19:23.662Z,16.94
2022-09-18T12:20:23.665Z,16.59
2022-09-18T12:21:23.671Z,16.31
2022-09-18T12:22:23.626Z,15.98
2022-09-18T12:23:23.618Z,15.70
2022-09-18T12:24:23.607Z,15.24
2022-09-18T12:25:23.603Z,15.18
2022-09-18T12:26:23.572Z,14.89
2022-09-18T12:27:27.513Z,14.65
2022-09-18T12:28:23.548Z,14.63
2022-09-18T12:29:23.534Z,14.44
2022-09-18T12:30:23.544Z,14.26
2022-09-18T12:31:23.541Z,14.19
2022-09-18T12:32:23.631Z,14.19
2022-09-18T12:33:23.491Z,14.18
2022-09-18T12:34:23.555Z,14.18
2022-09-18T12:35:23.482Z,14.28
2022-09-18T12:36:23.449Z,14.30
2022-09-18T12:37:23.449Z,14.44
2022-09-18T12:38:23.434Z,14.58
2022-09-18T12:39:24.084Z,14.74
2022-09-18T12:40:24.207Z,14.87
2022-09-18T12:41:24.072Z,14.96
2022-09-18T12:42:24.045Z,15.02
2022-09-18T12:43:24.039Z,15.15
2022-09-18T12:44:24.024Z,15.32
2022-09-18T12:45:24.068Z,15.35
2022-09-18T12:46:23.997Z,15.46
2022-09-18T12:47:23.989Z,15.61
2022-09-18T12:48:24.107Z,15.76
2022-09-18T12:49:23.958Z,15.83
2022-09-18T12:50:23.973Z,15.90
2022-09-18T12:51:23.968Z,16.02
2022-09-18T12:52:27.556Z,16.01